PASI

Sitka Rocky Gutierrez Airport

Sitka, Alaska, USA
PASI 182320Z 1900/1924 34007KT P6SM OVC060 FM190300 07006KT P6SM VCSH OVC060
Issued Valid From Valid To
Jan-18 @ 23:20 UTC
(3 hours ago)
Jan-19 @ 00:00 UTC
(2 hours ago)
Jan-20 @ 00:00 UTC
(in 22 hours)
Jan-19 @ 00:00 to Jan-19 @ 03:00
PASI 182320Z 1900/1924 34007KT P6SM OVC060
Wind Visibility Clouds
340° at 7 knots Greater than 6 miles
  • Overcast at 6,000' AGL
From Jan-19 @ 03:00 to Jan-20 @ 00:00
FM190300 07006KT P6SM VCSH OVC060
Wind Visibility Clouds
70° at 6 knots Greater than 6 miles
  • Overcast at 6,000' AGL
PASI 182320Z 1900/1924 34007KT P6SM OVC060 FM190300 07006KT P6SM VCSH OVC060
Issued Jan-18 @ 23:20 UTC
(3 hours ago)
Valid From Jan-19 @ 00:00 UTC
(2 hours ago)
Valid To Jan-20 @ 00:00 UTC
(in 22 hours)
Jan-19 @ 00:00 - Jan-19 @ 03:00
Wind Visibility
340° at 7 knots Greater than 6 miles
Clouds
  • Overcast at 6,000' AGL
From Jan-19 @ 03:00 - Jan-20 @ 00:00
Wind Visibility
70° at 6 knots Greater than 6 miles
Clouds
  • Overcast at 6,000' AGL